createdAt,value
2023-01-28T00:00:53.980Z,97633.72
2023-01-28T00:03:20.495Z,97641.25
2023-01-28T00:05:46.943Z,97636.81
2023-01-28T00:08:14.764Z,97631.34
2023-01-28T00:10:42.965Z,97623.75
2023-01-28T00:13:11.477Z,97633.41
2023-01-28T00:15:38.012Z,97637.31
2023-01-28T00:18:04.534Z,97640.56
2023-01-28T00:20:30.968Z,97642.63
2023-01-28T00:22:57.453Z,97641.66
2023-01-28T00:25:24.061Z,97634.94
2023-01-28T00:27:50.505Z,97641.16
2023-01-28T00:30:17.579Z,97642.53
2023-01-28T00:32:44.662Z,97639.03
2023-01-28T00:35:12.480Z,97641.94
2023-01-28T00:37:41.435Z,97647.56
2023-01-28T00:40:09.951Z,97640.56
2023-01-28T00:42:37.312Z,97641.94
2023-01-28T00:45:03.950Z,97644.97
2023-01-28T00:47:30.382Z,97641.75
2023-01-28T00:49:57.273Z,97643.19
2023-01-28T00:52:23.733Z,97640.34
2023-01-28T00:54:50.162Z,97636.75
2023-01-28T00:57:16.652Z,97647.19
2023-01-28T00:59:43.703Z,97649.25
2023-01-28T01:02:13.129Z,97649.91
2023-01-28T01:04:40.582Z,97641.34
2023-01-28T01:07:07.112Z,97648.81
2023-01-28T01:09:33.613Z,97641.94
2023-01-28T01:12:00.188Z,97651.78
2023-01-28T01:14:26.621Z,97651.94
2023-01-28T01:16:53.062Z,97653.28
2023-01-28T01:19:19.558Z,97659.13
2023-01-28T01:21:50.521Z,97664.44
2023-01-28T01:24:17.616Z,97663.31
2023-01-28T01:26:44.363Z,97665.00
2023-01-28T01:29:10.845Z,97656.72
2023-01-28T01:31:37.428Z,97657.66
2023-01-28T01:34:03.900Z,97657.44
2023-01-28T01:36:31.044Z,97659.50
2023-01-28T01:38:57.583Z,97664.25
2023-01-28T01:41:32.252Z,97672.88
2023-01-28T01:44:00.095Z,97672.97
2023-01-28T01:46:36.322Z,97663.22
2023-01-28T01:49:07.871Z,97661.66
2023-01-28T01:51:34.902Z,97661.78
2023-01-28T01:54:02.191Z,97652.66
2023-01-28T01:56:32.648Z,97667.06
2023-01-28T01:58:59.763Z,97666.16
2023-01-28T02:01:27.757Z,97664.59
2023-01-28T02:04:06.064Z,97673.31
2023-01-28T02:06:33.837Z,97669.72
2023-01-28T02:09:00.356Z,97668.44
2023-01-28T02:11:29.274Z,97672.75
2023-01-28T02:13:58.071Z,97681.53
2023-01-28T02:16:27.455Z,97677.09
2023-01-28T02:18:53.967Z,97685.63
2023-01-28T02:21:39.299Z,97685.63
2023-01-28T02:24:09.712Z,97678.84
2023-01-28T02:26:36.165Z,97678.41
2023-01-28T02:29:10.303Z,97678.75
2023-01-28T02:31:44.199Z,97671.38
2023-01-28T02:34:29.726Z,97674.59
2023-01-28T02:37:04.669Z,97673.44
2023-01-28T02:39:35.305Z,97677.59
2023-01-28T02:42:06.018Z,97668.38
2023-01-28T02:44:33.705Z,97677.41
2023-01-28T02:47:19.262Z,97660.78
2023-01-28T02:49:49.687Z,97660.50
2023-01-28T02:52:19.304Z,97665.59
2023-01-28T02:54:45.794Z,97659.72
2023-01-28T02:57:15.356Z,97654.41
2023-01-28T03:00:00.593Z,97658.56
2023-01-28T03:02:45.626Z,97659.66
2023-01-28T03:05:14.993Z,97668.00
2023-01-28T03:07:41.782Z,97664.56
2023-01-28T03:10:11.989Z,97668.94
2023-01-28T03:12:58.811Z,97659.22
2023-01-28T03:15:56.761Z,97668.25
2023-01-28T03:18:43.852Z,97663.66
2023-01-28T03:21:36.574Z,97673.47
2023-01-28T03:24:27.394Z,97669.16
2023-01-28T03:27:15.434Z,97663.72
2023-01-28T03:30:03.389Z,97663.16
2023-01-28T03:32:50.167Z,97666.28
2023-01-28T03:35:36.443Z,97673.91
2023-01-28T03:38:18.092Z,97672.97
2023-01-28T03:40:51.166Z,97672.81
2023-01-28T03:43:18.128Z,97682.03
2023-01-28T03:45:51.277Z,97673.81
2023-01-28T03:48:18.691Z,97673.06
2023-01-28T03:50:45.272Z,97674.09
2023-01-28T03:53:16.842Z,97675.53
2023-01-28T03:55:52.917Z,97677.09
2023-01-28T03:58:20.165Z,97676.53
2023-01-28T04:00:47.212Z,97677.09
2023-01-28T04:03:18.380Z,97670.16
2023-01-28T04:06:06.329Z,97672.97
2023-01-28T04:09:02.007Z,97671.09
2023-01-28T04:11:31.436Z,97676.38
2023-01-28T04:14:01.184Z,97670.06
2023-01-28T04:16:36.839Z,97667.31
2023-01-28T04:19:03.522Z,97676.06
2023-01-28T04:21:31.123Z,97679.34
2023-01-28T04:24:00.158Z,97676.25
2023-01-28T04:26:27.645Z,97679.22
2023-01-28T04:28:54.219Z,97681.72
2023-01-28T04:31:21.136Z,97688.53
2023-01-28T04:34:09.197Z,97693.28
2023-01-28T04:36:47.929Z,97692.63
2023-01-28T04:39:31.950Z,97694.69
2023-01-28T04:42:09.215Z,97696.47
2023-01-28T04:45:01.366Z,97698.25
2023-01-28T04:47:51.519Z,97708.69
2023-01-28T04:50:40.588Z,97713.09
2023-01-28T04:53:33.788Z,97706.28
2023-01-28T04:56:06.616Z,97710.53
2023-01-28T04:58:35.344Z,97712.28
2023-01-28T05:01:05.689Z,97721.81
2023-01-28T05:03:34.706Z,97721.53
2023-01-28T05:06:02.881Z,97718.41
2023-01-28T05:08:43.380Z,97714.75
2023-01-28T05:11:09.890Z,97730.34
2023-01-28T05:13:36.333Z,97731.13
2023-01-28T05:16:03.623Z,97737.91
2023-01-28T05:18:30.188Z,97739.59
2023-01-28T05:21:16.652Z,97736.78
2023-01-28T05:23:44.181Z,97736.19
2023-01-28T05:26:10.705Z,97743.00
2023-01-28T05:28:38.179Z,97740.22
2023-01-28T05:31:05.955Z,97744.38
2023-01-28T05:33:33.128Z,97742.59
2023-01-28T05:35:59.740Z,97747.28
2023-01-28T05:38:26.228Z,97746.41
2023-01-28T05:40:53.025Z,97754.50
2023-01-28T05:43:19.501Z,97758.19
2023-01-28T05:46:06.343Z,97763.34
2023-01-28T05:48:55.287Z,97760.44
2023-01-28T05:51:40.397Z,97760.44
2023-01-28T05:54:09.061Z,97763.53
2023-01-28T05:56:36.465Z,97770.41
2023-01-28T05:59:03.919Z,97772.03
2023-01-28T06:01:30.467Z,97772.72
2023-01-28T06:03:59.180Z,97780.66
2023-01-28T06:06:28.652Z,97780.41
2023-01-28T06:08:55.157Z,97773.25
2023-01-28T06:11:27.466Z,97779.41
2023-01-28T06:13:57.086Z,97773.75
2023-01-28T06:16:26.410Z,97778.53
2023-01-28T06:19:22.488Z,97781.97
2023-01-28T06:21:49.422Z,97787.94
2023-01-28T06:24:17.410Z,97782.81
2023-01-28T06:26:43.957Z,97787.78
2023-01-28T06:29:11.328Z,97794.28
2023-01-28T06:31:37.754Z,97797.09
2023-01-28T06:34:04.626Z,97792.13
2023-01-28T06:36:31.085Z,97806.91
2023-01-28T06:38:57.532Z,97803.25
2023-01-28T06:41:24.157Z,97812.03
2023-01-28T06:43:50.607Z,97815.88
2023-01-28T06:46:17.043Z,97810.41
2023-01-28T06:48:43.472Z,97817.84
2023-01-28T06:51:09.948Z,97814.25
2023-01-28T06:53:36.368Z,97819.28
2023-01-28T06:56:02.861Z,97820.69
2023-01-28T06:58:29.366Z,97820.34
2023-01-28T07:00:55.859Z,97828.28
2023-01-28T07:03:22.373Z,97825.03
2023-01-28T07:05:48.889Z,97833.41
2023-01-28T07:08:15.473Z,97839.69
2023-01-28T07:10:42.041Z,97833.72
2023-01-28T07:13:08.557Z,97831.38
2023-01-28T07:15:35.125Z,97831.34
2023-01-28T07:18:02.179Z,97829.63
2023-01-28T07:20:29.607Z,97829.97
2023-01-28T07:22:56.088Z,97840.41
2023-01-28T07:25:22.522Z,97839.38
2023-01-28T07:27:50.219Z,97839.53
2023-01-28T07:30:17.960Z,97839.88
2023-01-28T07:32:44.560Z,97845.00
2023-01-28T07:35:11.141Z,97843.94
2023-01-28T07:37:37.931Z,97847.22
2023-01-28T07:40:04.627Z,97852.53
2023-01-28T07:42:31.245Z,97854.94
2023-01-28T07:45:03.058Z,97849.25
2023-01-28T07:47:29.511Z,97853.09
2023-01-28T07:49:55.944Z,97855.19
2023-01-28T07:52:22.437Z,97854.97
2023-01-28T07:54:48.906Z,97852.28
2023-01-28T07:57:15.338Z,97860.19
2023-01-28T07:59:41.841Z,97860.03
2023-01-28T08:02:10.426Z,97863.97
2023-01-28T08:04:38.169Z,97857.63
2023-01-28T08:07:06.668Z,97864.34
2023-01-28T08:09:34.630Z,97866.00
2023-01-28T08:12:04.406Z,97871.81
2023-01-28T08:14:30.856Z,97876.25
2023-01-28T08:16:57.799Z,97882.56
2023-01-28T08:19:24.345Z,97882.28
2023-01-28T08:21:50.882Z,97879.31
2023-01-28T08:24:17.562Z,97877.19
2023-01-28T08:26:44.137Z,97884.25
2023-01-28T08:29:10.611Z,97883.78
2023-01-28T08:31:37.089Z,97886.66
2023-01-28T08:34:03.535Z,97892.44
2023-01-28T08:36:30.002Z,97892.78
2023-01-28T08:38:56.439Z,97887.03
2023-01-28T08:41:23.191Z,97897.34
2023-01-28T08:43:49.729Z,97890.94
2023-01-28T08:46:16.217Z,97903.41
2023-01-28T08:48:42.735Z,97897.25
2023-01-28T08:51:09.163Z,97905.50
2023-01-28T08:53:35.651Z,97912.41
2023-01-28T08:56:02.113Z,97910.66
2023-01-28T08:58:28.590Z,97909.84
2023-01-28T09:00:55.099Z,97913.00
2023-01-28T09:03:21.514Z,97922.41
2023-01-28T09:05:49.562Z,97913.22
2023-01-28T09:08:16.589Z,97913.53
2023-01-28T09:10:43.521Z,97922.31
2023-01-28T09:13:14.260Z,97928.94
2023-01-28T09:15:40.827Z,97925.88
2023-01-28T09:18:07.516Z,97931.53
2023-01-28T09:20:34.357Z,97929.47
2023-01-28T09:23:01.206Z,97936.47
2023-01-28T09:25:27.878Z,97938.50
2023-01-28T09:27:54.359Z,97932.47
2023-01-28T09:30:21.045Z,97933.59
2023-01-28T09:32:49.996Z,97942.31
2023-01-28T09:35:17.866Z,97942.81
2023-01-28T09:37:44.305Z,97940.53
2023-01-28T09:40:31.255Z,97937.63
2023-01-28T09:43:06.559Z,97944.34
2023-01-28T09:45:36.469Z,97943.72
2023-01-28T09:48:04.844Z,97944.44
2023-01-28T09:50:38.970Z,97945.06
2023-01-28T09:53:18.414Z,97945.66
2023-01-28T09:55:50.225Z,97949.63
2023-01-28T09:58:17.898Z,97953.59
2023-01-28T10:00:47.485Z,97950.31
2023-01-28T10:03:16.814Z,97950.69
2023-01-28T10:05:50.933Z,97950.66
2023-01-28T10:08:20.438Z,97953.25
2023-01-28T10:11:03.008Z,97947.66
2023-01-28T10:13:29.501Z,97945.72
2023-01-28T10:16:02.060Z,97941.63
2023-01-28T10:18:31.975Z,97941.78
2023-01-28T10:21:02.745Z,97930.75
2023-01-28T10:23:32.187Z,97944.38
2023-01-28T10:25:59.474Z,97941.47
2023-01-28T10:28:28.409Z,97935.72
2023-01-28T10:30:54.888Z,97944.84
2023-01-28T10:33:36.946Z,97942.31
2023-01-28T10:36:03.705Z,97938.50
2023-01-28T10:38:31.070Z,97941.56
2023-01-28T10:41:00.393Z,97938.00
2023-01-28T10:43:29.936Z,97942.78
2023-01-28T10:45:59.830Z,97933.66
2023-01-28T10:48:29.188Z,97927.16
2023-01-28T10:50:57.086Z,97931.13
2023-01-28T10:53:36.920Z,97925.53
2023-01-28T10:56:04.789Z,97929.00
2023-01-28T10:58:33.742Z,97923.84
2023-01-28T11:01:01.649Z,97926.41
2023-01-28T11:03:30.693Z,97928.34
2023-01-28T11:05:58.385Z,97922.16
2023-01-28T11:08:26.278Z,97927.34
2023-01-28T11:10:53.676Z,97920.69
2023-01-28T11:13:21.460Z,97919.69
2023-01-28T11:16:13.942Z,97925.19
2023-01-28T11:18:46.167Z,97925.34
2023-01-28T11:21:18.046Z,97916.25
2023-01-28T11:23:53.463Z,97919.84
2023-01-28T11:26:24.997Z,97926.06
2023-01-28T11:28:52.551Z,97917.09
2023-01-28T11:31:20.269Z,97918.19
2023-01-28T11:33:59.918Z,97912.16
2023-01-28T11:36:27.839Z,97905.75
2023-01-28T11:39:01.334Z,97903.53
2023-01-28T11:41:29.603Z,97906.13
2023-01-28T11:43:56.466Z,97897.59
2023-01-28T11:46:35.435Z,97904.22
2023-01-28T11:49:14.019Z,97895.94
2023-01-28T11:51:46.474Z,97889.16
2023-01-28T11:54:13.045Z,97905.13
2023-01-28T11:56:49.669Z,97897.16
2023-01-28T11:59:23.058Z,97896.69
2023-01-28T12:02:16.049Z,97890.63
2023-01-28T12:04:45.486Z,97882.09
2023-01-28T12:07:26.465Z,97885.88
2023-01-28T12:10:11.642Z,97890.59
2023-01-28T12:12:44.000Z,97887.63
2023-01-28T12:15:30.062Z,97877.34
2023-01-28T12:17:59.635Z,97881.19
2023-01-28T12:20:35.592Z,97886.38
2023-01-28T12:23:05.159Z,97880.13
2023-01-28T12:25:37.394Z,97876.84
2023-01-28T12:28:20.990Z,97878.06
2023-01-28T12:30:56.699Z,97868.28
2023-01-28T12:33:35.787Z,97871.81
2023-01-28T12:36:07.259Z,97869.88
2023-01-28T12:38:36.768Z,97878.44
2023-01-28T12:41:07.414Z,97883.47
2023-01-28T12:43:43.210Z,97879.94
2023-01-28T12:46:13.053Z,97883.53
2023-01-28T12:49:02.922Z,97879.13
2023-01-28T12:51:50.226Z,97882.03
2023-01-28T12:54:20.858Z,97883.34
2023-01-28T12:56:52.671Z,97887.41
2023-01-28T12:59:25.231Z,97883.50
2023-01-28T13:01:57.513Z,97878.53
2023-01-28T13:04:44.275Z,97883.53
2023-01-28T13:07:15.485Z,97883.81
2023-01-28T13:09:50.503Z,97884.03
2023-01-28T13:12:18.361Z,97883.81
2023-01-28T13:14:45.545Z,97883.19
2023-01-28T13:17:12.827Z,97878.91
2023-01-28T13:19:40.891Z,97878.00
2023-01-28T13:22:26.090Z,97883.09
2023-01-28T13:24:52.663Z,97877.75
2023-01-28T13:27:24.109Z,97883.91
2023-01-28T13:30:00.433Z,97883.59
2023-01-28T13:32:29.424Z,97893.03
2023-01-28T13:35:00.384Z,97898.91
2023-01-28T13:37:31.611Z,97898.06
2023-01-28T13:40:07.012Z,97894.34
2023-01-28T13:42:36.177Z,97900.34
2023-01-28T13:45:19.390Z,97901.47
2023-01-28T13:47:47.544Z,97903.63
2023-01-28T13:50:21.975Z,97914.25
2023-01-28T13:52:51.194Z,97913.78
2023-01-28T13:55:37.508Z,97920.75
2023-01-28T13:58:18.883Z,97924.25
2023-01-28T14:01:12.697Z,97920.28
2023-01-28T14:03:48.294Z,97921.06
2023-01-28T14:06:29.627Z,97924.47
2023-01-28T14:09:14.894Z,97933.75
2023-01-28T14:11:44.437Z,97928.47
2023-01-28T14:14:27.867Z,97931.19
2023-01-28T14:17:03.719Z,97932.13
2023-01-28T14:19:32.854Z,97934.16
2023-01-28T14:21:59.576Z,97933.34
2023-01-28T14:24:27.186Z,97935.88
2023-01-28T14:27:07.813Z,97950.56
2023-01-28T14:29:49.583Z,97945.06
2023-01-28T14:32:17.189Z,97946.09
2023-01-28T14:34:44.467Z,97941.53
2023-01-28T14:37:13.404Z,97949.50
2023-01-28T14:39:39.838Z,97953.63
2023-01-28T14:42:13.117Z,97956.72
2023-01-28T14:44:40.693Z,97956.53
2023-01-28T14:47:25.876Z,97961.47
2023-01-28T14:49:52.279Z,97966.78
2023-01-28T14:52:26.493Z,97969.63
2023-01-28T14:55:13.225Z,97971.38
2023-01-28T14:57:45.407Z,97972.59
2023-01-28T15:00:21.450Z,97969.97
2023-01-28T15:02:48.143Z,97970.03
2023-01-28T15:05:16.328Z,97976.28
2023-01-28T15:07:46.596Z,97980.78
2023-01-28T15:10:30.450Z,97992.47
2023-01-28T15:13:08.658Z,97997.44
2023-01-28T15:15:37.011Z,97994.78
2023-01-28T15:18:06.191Z,97985.75
2023-01-28T15:20:33.180Z,97996.72
2023-01-28T15:23:00.961Z,98005.38
2023-01-28T15:25:29.163Z,98011.78
2023-01-28T15:27:58.845Z,98015.00
2023-01-28T15:30:26.542Z,98007.41
2023-01-28T15:33:00.248Z,98016.28
2023-01-28T15:35:26.742Z,98020.50
2023-01-28T15:37:53.180Z,98020.06
2023-01-28T15:40:21.188Z,98017.59
2023-01-28T15:42:48.439Z,98020.75
2023-01-28T15:45:18.943Z,98026.97
2023-01-28T15:47:46.532Z,98023.91
2023-01-28T15:50:23.913Z,98024.38
2023-01-28T15:52:52.046Z,98027.47
2023-01-28T15:55:30.516Z,98030.94
2023-01-28T15:57:57.011Z,98037.09
2023-01-28T16:00:24.305Z,98041.47
2023-01-28T16:02:55.263Z,98040.59
2023-01-28T16:05:30.995Z,98048.59
2023-01-28T16:07:58.916Z,98047.88
2023-01-28T16:10:27.034Z,98055.75
2023-01-28T16:12:55.475Z,98054.16
2023-01-28T16:15:22.398Z,98069.00
2023-01-28T16:17:50.462Z,98073.03
2023-01-28T16:20:24.952Z,98078.47
2023-01-28T16:22:51.858Z,98082.38
2023-01-28T16:25:21.461Z,98082.06
2023-01-28T16:27:48.228Z,98061.47
2023-01-28T16:30:15.141Z,98074.25
2023-01-28T16:32:44.701Z,98084.72
2023-01-28T16:35:15.812Z,98084.88
2023-01-28T16:37:42.571Z,98087.97
2023-01-28T16:40:11.059Z,98091.66
2023-01-28T16:42:37.496Z,98086.44
2023-01-28T16:45:04.640Z,98088.16
2023-01-28T16:47:31.122Z,98102.34
2023-01-28T16:49:57.534Z,98098.56
2023-01-28T16:52:24.024Z,98100.91
2023-01-28T16:54:50.594Z,98100.47
2023-01-28T16:57:20.559Z,98105.47
2023-01-28T16:59:46.975Z,98106.97
2023-01-28T17:02:14.736Z,98102.38
2023-01-28T17:04:41.331Z,98104.09
2023-01-28T17:07:08.323Z,98104.22
2023-01-28T17:09:34.786Z,98105.25
2023-01-28T17:12:04.422Z,98109.94
2023-01-28T17:14:30.899Z,98110.34
2023-01-28T17:16:57.380Z,98116.09
2023-01-28T17:19:23.820Z,98107.91
2023-01-28T17:21:50.248Z,98112.47
2023-01-28T17:24:16.811Z,98115.66
2023-01-28T17:26:43.302Z,98131.16
2023-01-28T17:29:09.836Z,98123.34
2023-01-28T17:31:36.391Z,98128.50
2023-01-28T17:34:03.144Z,98131.44
2023-01-28T17:36:29.577Z,98131.38
2023-01-28T17:38:56.078Z,98135.81
2023-01-28T17:41:22.625Z,98139.44
2023-01-28T17:43:55.521Z,98136.25
2023-01-28T17:46:22.960Z,98131.75
2023-01-28T17:48:49.437Z,98130.75
2023-01-28T17:51:18.948Z,98137.50
2023-01-28T17:53:52.340Z,98133.63
2023-01-28T17:56:20.005Z,98139.75
2023-01-28T17:58:57.185Z,98146.09
2023-01-28T18:01:24.562Z,98142.81
2023-01-28T18:03:51.091Z,98155.78
2023-01-28T18:06:17.991Z,98152.09
2023-01-28T18:08:44.853Z,98149.81
2023-01-28T18:11:12.580Z,98145.47
2023-01-28T18:13:39.502Z,98146.06
2023-01-28T18:16:07.178Z,98151.22
2023-01-28T18:18:34.094Z,98148.66
2023-01-28T18:21:04.598Z,98148.88
2023-01-28T18:23:32.109Z,98152.00
2023-01-28T18:26:00.500Z,98157.13
2023-01-28T18:28:27.601Z,98161.13
2023-01-28T18:30:54.375Z,98162.44
2023-01-28T18:33:21.968Z,98170.09
2023-01-28T18:35:48.642Z,98171.22
2023-01-28T18:38:15.894Z,98166.50
2023-01-28T18:40:45.855Z,98168.69
2023-01-28T18:43:13.315Z,98163.50
2023-01-28T18:45:40.696Z,98174.94
2023-01-28T18:48:07.430Z,98178.53
2023-01-28T18:50:34.000Z,98183.34
2023-01-28T18:53:00.546Z,98179.59
2023-01-28T18:55:27.208Z,98185.97
2023-01-28T18:57:53.643Z,98185.97
2023-01-28T19:00:20.152Z,98187.53
2023-01-28T19:02:46.586Z,98191.16
2023-01-28T19:05:13.425Z,98184.91
2023-01-28T19:07:40.229Z,98191.00
2023-01-28T19:10:06.971Z,98194.72
2023-01-28T19:12:33.425Z,98187.94
2023-01-28T19:14:59.935Z,98192.56
2023-01-28T19:17:26.454Z,98193.66
2023-01-28T19:19:53.165Z,98196.91
2023-01-28T19:22:19.658Z,98193.00
2023-01-28T19:24:46.204Z,98201.66
2023-01-28T19:27:12.729Z,98198.47
2023-01-28T19:29:39.266Z,98200.81
2023-01-28T19:32:05.736Z,98198.63
2023-01-28T19:34:32.314Z,98203.19
2023-01-28T19:36:58.734Z,98206.28
2023-01-28T19:39:25.161Z,98208.16
2023-01-28T19:41:51.615Z,98207.97
2023-01-28T19:44:18.248Z,98209.41
2023-01-28T19:46:44.704Z,98213.94
2023-01-28T19:49:12.559Z,98209.72
2023-01-28T19:51:39.080Z,98202.63
2023-01-28T19:54:05.540Z,98207.34
2023-01-28T19:56:35.999Z,98205.16
2023-01-28T19:59:02.675Z,98214.47
2023-01-28T20:01:30.545Z,98218.91
2023-01-28T20:03:59.299Z,98218.84
2023-01-28T20:06:27.618Z,98221.09
2023-01-28T20:08:55.364Z,98229.19
2023-01-28T20:11:22.569Z,98220.78
2023-01-28T20:13:49.582Z,98221.41
2023-01-28T20:16:19.071Z,98226.56
2023-01-28T20:18:52.470Z,98227.00
2023-01-28T20:21:19.447Z,98223.66
2023-01-28T20:23:49.942Z,98230.78
2023-01-28T20:26:16.599Z,98228.97
2023-01-28T20:28:43.157Z,98234.47
2023-01-28T20:31:10.264Z,98228.31
2023-01-28T20:33:37.099Z,98235.75
2023-01-28T20:36:04.606Z,98240.91
2023-01-28T20:38:34.002Z,98245.38
2023-01-28T20:41:04.267Z,98247.06
2023-01-28T20:43:32.783Z,98239.28
2023-01-28T20:46:03.308Z,98245.88
2023-01-28T20:48:29.796Z,98251.13
2023-01-28T20:50:56.243Z,98253.22
2023-01-28T20:53:22.671Z,98258.69
2023-01-28T20:55:55.766Z,98253.91
2023-01-28T20:58:22.275Z,98248.56
2023-01-28T21:00:48.739Z,98245.13
2023-01-28T21:03:15.213Z,98250.41
2023-01-28T21:05:43.959Z,98250.41
2023-01-28T21:08:10.922Z,98245.84
2023-01-28T21:10:37.669Z,98258.22
2023-01-28T21:13:04.096Z,98255.09
2023-01-28T21:15:30.530Z,98252.00
2023-01-28T21:17:56.956Z,98254.00
2023-01-28T21:20:23.429Z,98259.94
2023-01-28T21:22:50.703Z,98254.72
2023-01-28T21:25:17.160Z,98262.44
2023-01-28T21:27:43.627Z,98264.16
2023-01-28T21:30:10.482Z,98266.31
2023-01-28T21:32:37.017Z,98269.75
2023-01-28T21:35:03.532Z,98275.53
2023-01-28T21:37:30.042Z,98268.19
2023-01-28T21:39:56.466Z,98271.00
2023-01-28T21:42:22.924Z,98280.69
2023-01-28T21:44:49.419Z,98285.56
2023-01-28T21:47:16.014Z,98284.56
2023-01-28T21:49:42.613Z,98284.75
2023-01-28T21:52:09.041Z,98285.38
2023-01-28T21:54:38.133Z,98277.72
2023-01-28T21:57:04.564Z,98281.78
2023-01-28T21:59:32.492Z,98282.97
2023-01-28T22:02:00.333Z,98283.78
2023-01-28T22:04:28.924Z,98285.75
2023-01-28T22:06:55.963Z,98284.72
2023-01-28T22:09:22.527Z,98284.34
2023-01-28T22:11:49.055Z,98284.81
2023-01-28T22:14:15.529Z,98285.34
2023-01-28T22:16:42.575Z,98281.69
2023-01-28T22:19:09.439Z,98284.19
2023-01-28T22:21:40.941Z,98293.63
2023-01-28T22:24:08.545Z,98300.78
2023-01-28T22:26:35.021Z,98291.91
2023-01-28T22:29:02.179Z,98303.31
2023-01-28T22:31:28.853Z,98290.97
2023-01-28T22:33:55.355Z,98292.66
2023-01-28T22:36:21.837Z,98295.72
2023-01-28T22:38:48.488Z,98295.00
2023-01-28T22:41:19.156Z,98295.41
2023-01-28T22:43:46.520Z,98296.28
2023-01-28T22:46:13.056Z,98303.31
2023-01-28T22:48:39.960Z,98297.53
2023-01-28T22:51:08.061Z,98294.09
2023-01-28T22:53:34.775Z,98296.97
2023-01-28T22:56:02.543Z,98295.44
2023-01-28T22:58:31.363Z,98303.13
2023-01-28T23:00:58.173Z,98293.31
2023-01-28T23:03:24.659Z,98290.88
2023-01-28T23:05:52.099Z,98297.03
2023-01-28T23:08:18.851Z,98291.44
2023-01-28T23:10:47.303Z,98291.50
2023-01-28T23:13:17.189Z,98293.78
2023-01-28T23:16:08.941Z,98292.22
2023-01-28T23:18:41.885Z,98292.28
2023-01-28T23:21:35.296Z,98289.41
2023-01-28T23:24:20.852Z,98299.25
2023-01-28T23:26:51.891Z,98292.97
2023-01-28T23:29:19.209Z,98301.84
2023-01-28T23:31:47.042Z,98302.56
2023-01-28T23:34:14.704Z,98299.13
2023-01-28T23:36:41.186Z,98296.44
2023-01-28T23:39:07.826Z,98297.69
2023-01-28T23:41:34.606Z,98301.03
2023-01-28T23:44:01.029Z,98302.81
2023-01-28T23:46:38.957Z,98297.28
2023-01-28T23:49:06.464Z,98301.09
2023-01-28T23:51:33.678Z,98301.28
2023-01-28T23:54:00.161Z,98307.66
2023-01-28T23:56:26.626Z,98303.91
2023-01-28T23:58:53.059Z,98300.50
